createdAt,value
2018-05-24T00:00:01.856Z,799.48
2018-05-24T00:00:06.173Z,799.51
2018-05-24T00:00:10.062Z,799.51
2018-05-24T00:00:14.225Z,799.47
2018-05-24T00:00:18.428Z,799.48
2018-05-24T00:00:22.745Z,799.52
2018-05-24T00:00:26.956Z,799.52
2018-05-24T00:00:31.163Z,799.51
2018-05-24T00:00:35.265Z,799.56
2018-05-24T00:00:39.604Z,799.57
2018-05-24T00:00:43.814Z,799.55
2018-05-24T00:00:47.925Z,799.57
2018-05-24T00:00:52.030Z,799.58
2018-05-24T00:00:56.252Z,799.57
2018-05-24T00:01:00.353Z,799.56
2018-05-24T00:01:04.500Z,799.56
2018-05-24T00:01:08.713Z,799.59
2018-05-24T00:01:12.820Z,799.61
2018-05-24T00:01:16.817Z,799.57
2018-05-24T00:01:21.026Z,799.59
2018-05-24T00:01:25.234Z,799.62
2018-05-24T00:01:29.446Z,799.59
2018-05-24T00:01:33.550Z,799.59
2018-05-24T00:01:37.543Z,799.62
2018-05-24T00:01:41.642Z,799.59
2018-05-24T00:01:45.856Z,799.57
2018-05-24T00:01:49.953Z,799.57
2018-05-24T00:01:54.164Z,799.6
2018-05-24T00:01:58.381Z,799.61
2018-05-24T00:02:02.487Z,799.6
2018-05-24T00:02:06.701Z,799.6
2018-05-24T00:02:10.925Z,799.63
2018-05-24T00:02:15.173Z,799.62
2018-05-24T00:02:19.501Z,799.62
2018-05-24T00:02:23.710Z,799.59
2018-05-24T00:02:27.921Z,799.62
2018-05-24T00:02:32.043Z,799.63
2018-05-24T00:02:36.161Z,799.6
2018-05-24T00:02:40.381Z,799.63
2018-05-24T00:02:44.378Z,799.62
2018-05-24T00:02:48.589Z,799.6
2018-05-24T00:02:52.797Z,799.62
2018-05-24T00:02:57.011Z,799.6
2018-05-24T00:03:01.111Z,799.6
2018-05-24T00:03:05.234Z,799.61
2018-05-24T00:03:09.443Z,799.64
2018-05-24T00:03:13.650Z,799.63
2018-05-24T00:03:17.757Z,799.57
2018-05-24T00:03:22.088Z,799.64
2018-05-24T00:03:26.307Z,799.62
2018-05-24T00:03:30.307Z,799.63
2018-05-24T00:03:34.301Z,799.64
2018-05-24T00:03:38.630Z,799.62
2018-05-24T00:03:42.732Z,799.62
2018-05-24T00:03:46.837Z,799.64
2018-05-24T00:03:51.048Z,799.64
2018-05-24T00:03:55.161Z,799.63
2018-05-24T00:03:59.474Z,799.66
2018-05-24T00:04:03.692Z,799.65
2018-05-24T00:04:07.803Z,799.67
2018-05-24T00:04:12.129Z,799.68
2018-05-24T00:04:16.351Z,799.67
2018-05-24T00:04:20.676Z,799.68
2018-05-24T00:04:24.887Z,799.69
2018-05-24T00:04:28.775Z,799.7
2018-05-24T00:04:32.990Z,799.68
2018-05-24T00:04:37.092Z,799.67
2018-05-24T00:04:41.196Z,799.7
2018-05-24T00:04:45.517Z,799.69
2018-05-24T00:04:49.618Z,799.67
2018-05-24T00:04:53.635Z,799.66
2018-05-24T00:04:57.860Z,799.7
2018-05-24T00:05:02.077Z,799.72
2018-05-24T00:05:06.080Z,799.67
2018-05-24T00:05:10.185Z,799.71
2018-05-24T00:05:14.444Z,799.7
2018-05-24T00:05:18.657Z,799.67
2018-05-24T00:05:22.768Z,799.7
2018-05-24T00:05:26.874Z,799.63
2018-05-24T00:05:30.978Z,799.63
2018-05-24T00:05:35.302Z,799.66
2018-05-24T00:05:39.526Z,799.68
2018-05-24T00:05:43.845Z,799.67
2018-05-24T00:05:47.956Z,799.67
2018-05-24T00:05:52.065Z,799.66
2018-05-24T00:05:56.384Z,799.67
2018-05-24T00:06:00.596Z,799.64
2018-05-24T00:06:04.578Z,799.68
2018-05-24T00:06:08.579Z,799.67
2018-05-24T00:06:12.804Z,799.68
2018-05-24T00:06:17.018Z,799.67
2018-05-24T00:06:21.124Z,799.67
2018-05-24T00:06:25.334Z,799.69
2018-05-24T00:06:29.546Z,799.68
2018-05-24T00:06:33.650Z,799.66
2018-05-24T00:06:37.748Z,799.67
2018-05-24T00:06:41.750Z,799.69
2018-05-24T00:06:45.970Z,799.62
2018-05-24T00:06:50.189Z,799.67
2018-05-24T00:06:54.287Z,799.63
2018-05-24T00:06:58.494Z,799.58
2018-05-24T00:07:02.605Z,799.65
2018-05-24T00:07:06.815Z,799.66
2018-05-24T00:07:10.917Z,799.66
2018-05-24T00:07:15.142Z,799.7
2018-05-24T00:07:19.255Z,799.68
2018-05-24T00:07:23.560Z,799.58
2018-05-24T00:07:27.669Z,799.6
2018-05-24T00:07:31.878Z,799.66
2018-05-24T00:07:35.991Z,799.66
2018-05-24T00:07:40.305Z,799.62
2018-05-24T00:07:44.513Z,799.62
2018-05-24T00:07:48.817Z,799.61
2018-05-24T00:07:53.162Z,799.62
2018-05-24T00:07:57.500Z,799.67
2018-05-24T00:08:01.953Z,799.65
2018-05-24T00:08:06.058Z,799.64
2018-05-24T00:08:10.382Z,799.65
2018-05-24T00:08:14.593Z,799.64
2018-05-24T00:08:18.918Z,799.63
2018-05-24T00:08:23.114Z,799.67
2018-05-24T00:08:27.330Z,799.68
2018-05-24T00:08:31.650Z,799.63
2018-05-24T00:08:35.747Z,799.61
2018-05-24T00:08:39.634Z,799.62
2018-05-24T00:08:43.954Z,799.61
2018-05-24T00:08:48.057Z,799.65
2018-05-24T00:08:52.272Z,799.68
2018-05-24T00:08:56.262Z,799.69
2018-05-24T00:09:00.466Z,799.64
2018-05-24T00:09:04.729Z,799.65
2018-05-24T00:09:09.132Z,799.66
2018-05-24T00:09:13.465Z,799.68
2018-05-24T00:09:17.675Z,799.67
2018-05-24T00:09:21.771Z,799.68
2018-05-24T00:09:25.983Z,799.69
2018-05-24T00:09:30.188Z,799.65
2018-05-24T00:09:34.290Z,799.63
2018-05-24T00:09:38.281Z,799.63
2018-05-24T00:09:42.383Z,799.65
2018-05-24T00:09:46.590Z,799.65
2018-05-24T00:09:50.809Z,799.65
2018-05-24T00:09:54.912Z,799.64
2018-05-24T00:09:59.015Z,799.64
2018-05-24T00:10:03.018Z,799.66
2018-05-24T00:10:07.236Z,799.66
2018-05-24T00:10:11.558Z,799.63
2018-05-24T00:10:15.877Z,799.67
2018-05-24T00:10:19.873Z,799.69
2018-05-24T00:10:24.079Z,799.64
2018-05-24T00:10:28.184Z,799.62
2018-05-24T00:10:32.284Z,799.6
2018-05-24T00:10:36.178Z,799.7
2018-05-24T00:10:40.503Z,799.61
2018-05-24T00:10:44.604Z,799.66
2018-05-24T00:10:48.827Z,799.68
2018-05-24T00:10:53.147Z,799.65
2018-05-24T00:10:57.253Z,799.66
2018-05-24T00:11:01.356Z,799.65
2018-05-24T00:11:05.464Z,799.67
2018-05-24T00:11:09.688Z,799.68
2018-05-24T00:11:13.789Z,799.72
2018-05-24T00:11:18.113Z,799.68
2018-05-24T00:11:54.426Z,799.64
2018-05-24T00:11:58.634Z,799.7
2018-05-24T00:12:02.738Z,799.71
2018-05-24T00:12:06.946Z,799.72
2018-05-24T00:12:11.053Z,799.7
2018-05-24T00:12:15.381Z,799.7
2018-05-24T00:12:19.607Z,799.7
2018-05-24T00:12:23.823Z,799.71
2018-05-24T00:12:27.925Z,799.67
2018-05-24T00:12:32.134Z,799.69
2018-05-24T00:12:36.459Z,799.73
2018-05-24T00:12:40.676Z,799.73
2018-05-24T00:12:44.887Z,799.7
2018-05-24T00:12:49.199Z,799.72
2018-05-24T00:12:53.303Z,799.7
2018-05-24T00:12:57.309Z,799.74
2018-05-24T00:13:01.592Z,799.72
2018-05-24T00:13:05.954Z,799.71
2018-05-24T00:13:10.281Z,799.74
2018-05-24T00:13:14.492Z,799.74
2018-05-24T00:13:18.823Z,799.74
2018-05-24T00:13:23.037Z,799.76
2018-05-24T00:13:27.138Z,799.71
2018-05-24T00:13:31.456Z,799.74
2018-05-24T00:13:35.666Z,799.75
2018-05-24T00:13:39.768Z,799.76
2018-05-24T00:13:43.982Z,799.77
2018-05-24T00:13:48.194Z,799.75
2018-05-24T00:13:52.295Z,799.74
2018-05-24T00:13:56.396Z,799.78
2018-05-24T00:14:00.511Z,799.76
2018-05-24T00:14:04.613Z,799.8
2018-05-24T00:14:08.723Z,799.76
2018-05-24T00:14:12.944Z,799.77
2018-05-24T00:14:17.153Z,799.74
2018-05-24T00:14:21.468Z,799.78
2018-05-24T00:14:25.592Z,799.78
2018-05-24T00:14:29.925Z,799.78
2018-05-24T00:14:33.919Z,799.72
2018-05-24T00:14:38.124Z,799.75
2018-05-24T00:14:42.344Z,799.78
2018-05-24T00:14:46.659Z,799.8
2018-05-24T00:14:50.872Z,799.78
2018-05-24T00:14:55.097Z,799.81
2018-05-24T00:14:59.197Z,799.79
2018-05-24T00:15:03.195Z,799.8
2018-05-24T00:15:07.303Z,799.76
2018-05-24T00:15:11.404Z,799.78
2018-05-24T00:15:15.721Z,799.79
2018-05-24T00:15:19.935Z,799.81
2018-05-24T00:15:24.041Z,799.78
2018-05-24T00:15:28.371Z,799.76
2018-05-24T00:15:32.514Z,799.81
2018-05-24T00:15:36.721Z,799.82
2018-05-24T00:15:40.828Z,799.84
2018-05-24T00:15:45.047Z,799.84
2018-05-24T00:15:49.261Z,799.86
2018-05-24T00:15:53.255Z,799.86
2018-05-24T00:15:57.474Z,799.82
2018-05-24T00:16:01.579Z,799.84
2018-05-24T00:16:05.802Z,799.81
2018-05-24T00:16:10.011Z,799.85
2018-05-24T00:16:14.332Z,799.86
2018-05-24T00:16:18.449Z,799.85
2018-05-24T00:16:22.771Z,799.81
2018-05-24T00:16:26.983Z,799.83
2018-05-24T00:16:31.088Z,799.86
2018-05-24T00:16:34.972Z,799.86
2018-05-24T00:16:39.179Z,799.9
2018-05-24T00:16:43.378Z,799.84
2018-05-24T00:16:47.587Z,799.91
2018-05-24T00:16:51.479Z,799.93
2018-05-24T00:16:55.869Z,799.93
2018-05-24T00:17:00.190Z,799.86
2018-05-24T00:17:04.292Z,799.93
2018-05-24T00:17:08.507Z,799.94
2018-05-24T00:17:12.722Z,799.93
2018-05-24T00:17:16.934Z,799.93
2018-05-24T00:17:21.259Z,799.94
2018-05-24T00:17:25.363Z,799.93
2018-05-24T00:17:29.568Z,799.91
2018-05-24T00:17:33.669Z,799.94
2018-05-24T00:17:37.777Z,799.93
2018-05-24T00:17:42.128Z,799.97
2018-05-24T00:17:46.128Z,799.96
2018-05-24T00:17:50.344Z,799.98
2018-05-24T00:17:54.445Z,799.96
2018-05-24T00:17:58.658Z,799.97
2018-05-24T00:18:02.871Z,800
2018-05-24T00:18:06.969Z,799.98
2018-05-24T00:18:10.987Z,799.97
2018-05-24T00:18:15.312Z,799.96
2018-05-24T00:18:19.418Z,800
2018-05-24T00:18:23.631Z,800
2018-05-24T00:18:27.945Z,799.98
2018-05-24T00:18:32.162Z,799.99
2018-05-24T00:18:36.152Z,800.01
2018-05-24T00:18:40.034Z,800
2018-05-24T00:18:44.254Z,799.98
2018-05-24T00:18:48.461Z,799.99
2018-05-24T00:18:52.670Z,799.98
2018-05-24T00:18:56.666Z,799.98
2018-05-24T00:19:00.906Z,799.98
2018-05-24T00:19:05.020Z,800.04
2018-05-24T00:19:09.121Z,800.01
2018-05-24T00:19:13.223Z,800.02
2018-05-24T00:19:17.430Z,800.01
2018-05-24T00:19:21.618Z,800
2018-05-24T00:19:25.617Z,799.96
2018-05-24T00:19:29.613Z,799.94
2018-05-24T00:19:33.714Z,799.94
2018-05-24T00:19:37.818Z,800
2018-05-24T00:19:41.837Z,800
2018-05-24T00:19:46.048Z,800
2018-05-24T00:19:50.383Z,800
2018-05-24T00:19:54.591Z,800
2018-05-24T00:19:58.915Z,800
2018-05-24T00:20:03.027Z,800.01
2018-05-24T00:20:07.130Z,800.02
2018-05-24T00:20:11.236Z,800.01
2018-05-24T00:20:15.657Z,799.97
2018-05-24T00:20:19.869Z,800.02
2018-05-24T00:20:23.972Z,800.03
2018-05-24T00:20:28.072Z,800.01
2018-05-24T00:20:32.171Z,800
2018-05-24T00:20:36.272Z,800.02
2018-05-24T00:20:40.573Z,800.01
2018-05-24T00:20:44.789Z,799.96
2018-05-24T00:20:49.111Z,799.98
2018-05-24T00:20:53.508Z,800.02
2018-05-24T00:20:57.712Z,800.02
2018-05-24T00:21:01.921Z,800.01
2018-05-24T00:21:05.918Z,800.03
2018-05-24T00:21:10.125Z,800.03
2018-05-24T00:21:14.443Z,799.98
2018-05-24T00:21:18.435Z,800.02
2018-05-24T00:21:22.540Z,800.01
2018-05-24T00:21:26.883Z,800.04
2018-05-24T00:21:30.987Z,800.04
2018-05-24T00:21:35.209Z,800.05
2018-05-24T00:21:39.423Z,800.03
2018-05-24T00:21:43.751Z,800.06
2018-05-24T00:21:48.073Z,800.01
2018-05-24T00:21:52.282Z,800.03
2018-05-24T00:21:56.280Z,800.02
2018-05-24T00:22:00.382Z,800.02
2018-05-24T00:22:04.598Z,800.01
2018-05-24T00:22:08.715Z,800.01
2018-05-24T00:22:12.924Z,800.03
2018-05-24T00:22:17.142Z,800.03
2018-05-24T00:22:21.463Z,800
2018-05-24T00:22:25.672Z,800.02
2018-05-24T00:22:29.883Z,800.01
2018-05-24T00:22:34.093Z,800.02
2018-05-24T00:22:38.089Z,799.96
2018-05-24T00:22:42.198Z,800.04
2018-05-24T00:22:46.403Z,800.05
2018-05-24T00:22:50.719Z,800.04
2018-05-24T00:22:54.712Z,800.03
2018-05-24T00:22:58.920Z,800.01
2018-05-24T00:23:03.218Z,800.04
2018-05-24T00:23:07.224Z,800.04
2018-05-24T00:23:11.473Z,800.03
2018-05-24T00:23:15.786Z,800.04
2018-05-24T00:23:20.005Z,800.02
2018-05-24T00:23:24.210Z,800.03
2018-05-24T00:23:28.435Z,800.01
2018-05-24T00:23:32.324Z,800.01
2018-05-24T00:23:36.531Z,800
2018-05-24T00:23:40.629Z,800.03
2018-05-24T00:23:44.837Z,800.05
2018-05-24T00:23:49.052Z,799.99
2018-05-24T00:23:53.157Z,800.02
2018-05-24T00:23:57.366Z,800.01
2018-05-24T00:24:01.577Z,800.01
2018-05-24T00:24:05.760Z,800.01
2018-05-24T00:24:10.096Z,800.01
2018-05-24T00:24:14.423Z,800.05
2018-05-24T00:24:18.740Z,800.02
2018-05-24T00:24:23.055Z,799.99
2018-05-24T00:24:26.938Z,799.98
2018-05-24T00:24:31.049Z,800.01
2018-05-24T00:24:35.263Z,800.01
2018-05-24T00:24:39.369Z,800
2018-05-24T00:24:43.574Z,800.04
2018-05-24T00:24:47.900Z,800.04
2018-05-24T00:24:52.112Z,800.01
2018-05-24T00:24:56.440Z,800.03
2018-05-24T00:25:00.434Z,800.04
2018-05-24T00:25:04.689Z,799.94
2018-05-24T00:25:09.010Z,800.01
2018-05-24T00:25:13.115Z,799.97
2018-05-24T00:25:17.321Z,799.95
2018-05-24T00:25:21.637Z,799.96
2018-05-24T00:25:25.738Z,800.01
2018-05-24T00:25:30.052Z,799.98
2018-05-24T00:25:34.158Z,800
2018-05-24T00:25:38.484Z,799.98
2018-05-24T00:25:42.583Z,799.96
2018-05-24T00:25:46.791Z,799.99
2018-05-24T00:25:50.894Z,799.97
2018-05-24T00:25:55.106Z,799.99
2018-05-24T00:25:59.430Z,800
2018-05-24T00:26:03.549Z,799.98
2018-05-24T00:26:07.436Z,799.96
2018-05-24T00:26:11.649Z,799.97
2018-05-24T00:26:15.759Z,799.93
2018-05-24T00:26:19.857Z,799.98
2018-05-24T00:26:24.072Z,799.97
2018-05-24T00:26:28.276Z,799.97
2018-05-24T00:26:32.594Z,799.93
2018-05-24T00:26:36.799Z,799.94
2018-05-24T00:26:41.010Z,799.9
2018-05-24T00:26:45.229Z,799.91
2018-05-24T00:26:49.548Z,799.93
2018-05-24T00:26:53.754Z,799.94
2018-05-24T00:26:57.862Z,799.91
2018-05-24T00:27:01.961Z,799.87
2018-05-24T00:27:06.232Z,799.9
2018-05-24T00:27:10.558Z,799.91
2018-05-24T00:27:14.776Z,799.93
2018-05-24T00:27:18.982Z,799.87
2018-05-24T00:27:23.188Z,799.92
2018-05-24T00:27:27.393Z,799.94
2018-05-24T00:27:31.599Z,799.9
2018-05-24T00:27:35.587Z,799.91
2018-05-24T00:27:39.903Z,799.91
2018-05-24T00:27:44.004Z,799.84
2018-05-24T00:27:48.217Z,799.9
2018-05-24T00:27:52.535Z,799.93
2018-05-24T00:27:56.750Z,799.89
2018-05-24T00:28:01.076Z,799.89
2018-05-24T00:28:05.400Z,799.89
2018-05-24T00:28:09.721Z,799.89
2018-05-24T00:28:13.937Z,799.84
2018-05-24T00:28:18.037Z,799.9
2018-05-24T00:28:22.352Z,799.9
2018-05-24T00:28:26.674Z,799.88
2018-05-24T00:28:30.991Z,799.9
2018-05-24T00:28:35.096Z,799.9
2018-05-24T00:28:39.302Z,799.92
2018-05-24T00:28:43.512Z,799.88
2018-05-24T00:28:47.722Z,799.89
2018-05-24T00:28:51.822Z,799.85
2018-05-24T00:28:55.927Z,799.87
2018-05-24T00:29:00.025Z,799.88
2018-05-24T00:29:04.018Z,799.9
2018-05-24T00:29:08.335Z,799.87
2018-05-24T00:29:12.550Z,799.9
2018-05-24T00:29:16.758Z,799.87
2018-05-24T00:29:20.859Z,799.9
2018-05-24T00:29:24.963Z,799.87
2018-05-24T00:29:29.176Z,799.89
2018-05-24T00:29:33.172Z,799.85
2018-05-24T00:29:37.274Z,799.82
2018-05-24T00:29:41.597Z,799.81
2018-05-24T00:29:45.700Z,799.88
2018-05-24T00:29:49.906Z,799.91
2018-05-24T00:29:54.202Z,799.88
2018-05-24T00:29:58.302Z,799.88
2018-05-24T00:30:02.526Z,799.85
2018-05-24T00:30:06.628Z,799.87
2018-05-24T00:30:10.837Z,799.87
2018-05-24T00:30:15.064Z,799.84
2018-05-24T00:30:19.271Z,799.87
2018-05-24T00:30:23.475Z,799.85
2018-05-24T00:30:27.580Z,799.86
2018-05-24T00:30:31.680Z,799.87
2018-05-24T00:30:35.887Z,799.86
2018-05-24T00:30:40.002Z,799.85
2018-05-24T00:30:44.333Z,799.88
2018-05-24T00:30:48.675Z,799.85
2018-05-24T00:30:52.994Z,799.86
2018-05-24T00:30:57.221Z,799.83
2018-05-24T00:31:01.427Z,799.85
2018-05-24T00:31:05.531Z,799.83
2018-05-24T00:31:09.820Z,799.82
2018-05-24T00:31:14.027Z,799.81
2018-05-24T00:31:18.128Z,799.8
2018-05-24T00:31:22.445Z,799.84
2018-05-24T00:31:26.547Z,799.82
2018-05-24T00:31:30.645Z,799.83
2018-05-24T00:31:34.917Z,799.85
2018-05-24T00:31:39.020Z,799.84
2018-05-24T00:31:43.330Z,799.85
2018-05-24T00:31:47.500Z,799.85
2018-05-24T00:31:51.709Z,799.79
2018-05-24T00:31:55.917Z,799.83
2018-05-24T00:32:00.126Z,799.84
2018-05-24T00:32:04.233Z,799.77
2018-05-24T00:32:08.459Z,799.81
2018-05-24T00:32:12.582Z,799.82
2018-05-24T00:32:16.797Z,799.83
2018-05-24T00:32:21.001Z,799.83
2018-05-24T00:32:25.213Z,799.83
2018-05-24T00:32:29.430Z,799.83
2018-05-24T00:32:33.420Z,799.84
2018-05-24T00:32:37.740Z,799.75
2018-05-24T00:32:41.838Z,799.82
2018-05-24T00:32:45.939Z,799.8
2018-05-24T00:32:50.146Z,799.82
2018-05-24T00:32:54.249Z,799.78
2018-05-24T00:32:58.464Z,799.82
2018-05-24T00:33:02.564Z,799.75
2018-05-24T00:33:06.664Z,799.8
2018-05-24T00:33:10.979Z,799.84
2018-05-24T00:33:15.187Z,799.78
2018-05-24T00:33:19.292Z,799.74
2018-05-24T00:33:23.502Z,799.8
2018-05-24T00:33:27.796Z,799.82
2018-05-24T00:33:32.006Z,799.79
2018-05-24T00:33:35.995Z,799.8
2018-05-24T00:33:40.095Z,799.79
2018-05-24T00:33:44.298Z,799.73
2018-05-24T00:33:48.399Z,799.73
2018-05-24T00:33:52.395Z,799.8
2018-05-24T00:33:56.500Z,799.74
2018-05-24T00:34:00.725Z,799.75
2018-05-24T00:34:04.822Z,799.76
2018-05-24T00:34:08.815Z,799.79
2018-05-24T00:34:13.131Z,799.8
2018-05-24T00:34:17.336Z,799.82
2018-05-24T00:34:21.438Z,799.8
2018-05-24T00:34:25.672Z,799.8
2018-05-24T00:34:30.032Z,799.79
2018-05-24T00:34:34.136Z,799.8
2018-05-24T00:34:38.347Z,799.81
2018-05-24T00:34:42.556Z,799.79
2018-05-24T00:34:46.877Z,799.8
2018-05-24T00:34:51.094Z,799.81
2018-05-24T00:34:55.204Z,799.8
2018-05-24T00:34:59.307Z,799.77
2018-05-24T00:35:03.489Z,799.78
2018-05-24T00:35:07.705Z,799.79
2018-05-24T00:35:11.911Z,799.78
2018-05-24T00:35:16.011Z,799.78
2018-05-24T00:35:20.109Z,799.72
2018-05-24T00:35:24.429Z,799.73
2018-05-24T00:35:28.527Z,799.77
2018-05-24T00:35:32.842Z,799.77
2018-05-24T00:35:37.049Z,799.82
2018-05-24T00:35:41.256Z,799.79
2018-05-24T00:35:45.577Z,799.82
2018-05-24T00:35:49.786Z,799.78
2018-05-24T00:35:53.880Z,799.77
2018-05-24T00:35:57.871Z,799.81
2018-05-24T00:36:01.972Z,799.81
2018-05-24T00:36:06.078Z,799.81
2018-05-24T00:36:10.175Z,799.73
2018-05-24T00:36:14.272Z,799.8
2018-05-24T00:36:18.479Z,799.81
2018-05-24T00:36:22.580Z,799.71
2018-05-24T00:36:26.904Z,799.71
2018-05-24T00:36:31.119Z,799.72
2018-05-24T00:36:35.443Z,799.76
2018-05-24T00:36:39.657Z,799.77
2018-05-24T00:36:43.938Z,799.75
2018-05-24T00:36:48.156Z,799.75
2018-05-24T00:36:52.366Z,799.77
2018-05-24T00:36:56.575Z,799.73
2018-05-24T00:37:00.893Z,799.73
2018-05-24T00:37:05.112Z,799.76
2018-05-24T00:37:09.211Z,799.7
2018-05-24T00:37:13.421Z,799.68
2018-05-24T00:37:17.742Z,799.75
2018-05-24T00:37:21.976Z,799.76
2018-05-24T00:37:26.194Z,799.77
2018-05-24T00:37:30.399Z,799.74
2018-05-24T00:37:34.728Z,799.75
2018-05-24T00:37:38.830Z,799.72
2018-05-24T00:37:43.038Z,799.77
2018-05-24T00:37:47.243Z,799.75
2018-05-24T00:37:51.340Z,799.68
2018-05-24T00:37:55.665Z,799.69
2018-05-24T00:37:59.980Z,799.73
2018-05-24T00:38:04.080Z,799.74
2018-05-24T00:38:08.180Z,799.71
2018-05-24T00:38:12.586Z,799.75
2018-05-24T00:38:16.794Z,799.72
2018-05-24T00:38:20.894Z,799.66
2018-05-24T00:38:25.214Z,799.72
2018-05-24T00:38:29.208Z,799.73
2018-05-24T00:38:33.304Z,799.73
2018-05-24T00:38:37.513Z,799.7
2018-05-24T00:38:41.723Z,799.7
2018-05-24T00:38:46.039Z,799.74
2018-05-24T00:38:50.266Z,799.65
2018-05-24T00:38:54.477Z,799.69
2018-05-24T00:38:58.696Z,799.7
2018-05-24T00:39:02.694Z,799.71
2018-05-24T00:39:06.919Z,799.72
2018-05-24T00:39:11.131Z,799.74
2018-05-24T00:39:15.342Z,799.67
2018-05-24T00:39:19.610Z,799.69
2018-05-24T00:39:23.818Z,799.71
2018-05-24T00:39:28.066Z,799.68
2018-05-24T00:39:32.169Z,799.65
2018-05-24T00:39:36.375Z,799.67
2018-05-24T00:39:40.391Z,799.68
2018-05-24T00:39:44.599Z,799.66
2018-05-24T00:39:48.698Z,799.63
2018-05-24T00:39:53.022Z,799.66
2018-05-24T00:39:57.349Z,799.65
2018-05-24T00:40:01.567Z,799.72
2018-05-24T00:40:05.565Z,799.66
2018-05-24T00:40:09.682Z,799.66
2018-05-24T00:40:13.780Z,799.64
2018-05-24T00:40:18.158Z,799.63
2018-05-24T00:40:22.369Z,799.62
2018-05-24T00:40:26.691Z,799.62
2018-05-24T00:40:30.807Z,799.57
2018-05-24T00:40:34.694Z,799.6
2018-05-24T00:40:39.025Z,799.61
2018-05-24T00:40:43.233Z,799.59
2018-05-24T00:40:47.439Z,799.57
2018-05-24T00:40:51.657Z,799.55
2018-05-24T00:40:55.876Z,799.56
2018-05-24T00:40:59.976Z,799.61
2018-05-24T00:41:03.979Z,799.59
2018-05-24T00:41:07.968Z,799.6
2018-05-24T00:41:12.293Z,799.6
2018-05-24T00:41:16.410Z,799.6
2018-05-24T00:41:20.622Z,799.51
2018-05-24T00:41:24.830Z,799.57
2018-05-24T00:41:28.932Z,799.57
2018-05-24T00:41:33.037Z,799.59
2018-05-24T00:41:37.141Z,799.55
2018-05-24T00:41:41.349Z,799.55
2018-05-24T00:41:45.459Z,799.56
2018-05-24T00:41:49.675Z,799.55
2018-05-24T00:41:53.889Z,799.52
2018-05-24T00:41:57.666Z,799.53
2018-05-24T00:42:01.880Z,799.54
2018-05-24T00:42:05.876Z,799.55
2018-05-24T00:42:10.088Z,799.52
2018-05-24T00:42:14.408Z,799.52
2018-05-24T00:42:18.725Z,799.5
2018-05-24T00:42:22.936Z,799.48
2018-05-24T00:42:27.035Z,799.49
2018-05-24T00:42:31.251Z,799.5
2018-05-24T00:42:35.470Z,799.49
2018-05-24T00:42:39.466Z,799.54
2018-05-24T00:42:43.681Z,799.52
2018-05-24T00:42:47.890Z,799.5
2018-05-24T00:42:52.209Z,799.49
2018-05-24T00:42:56.430Z,799.48
2018-05-24T00:43:00.560Z,799.49
2018-05-24T00:43:04.668Z,799.48
2018-05-24T00:43:08.998Z,799.5
2018-05-24T00:43:13.385Z,799.47
2018-05-24T00:43:17.719Z,799.49
2018-05-24T00:43:21.933Z,799.45
2018-05-24T00:43:26.143Z,799.46
2018-05-24T00:43:30.137Z,799.48
2018-05-24T00:43:34.348Z,799.49
2018-05-24T00:43:38.560Z,799.49
2018-05-24T00:43:42.875Z,799.5
2018-05-24T00:43:46.969Z,799.48
2018-05-24T00:43:51.178Z,799.44
2018-05-24T00:43:55.494Z,799.47
2018-05-24T00:43:59.701Z,799.43
2018-05-24T00:44:04.029Z,799.43
2018-05-24T00:44:08.346Z,799.42
2018-05-24T00:44:12.453Z,799.49
2018-05-24T00:44:16.562Z,799.46
2018-05-24T00:44:20.778Z,799.46
2018-05-24T00:44:24.988Z,799.45
2018-05-24T00:44:29.298Z,799.47
2018-05-24T00:44:33.402Z,799.42
2018-05-24T00:44:37.617Z,799.43
2018-05-24T00:44:41.835Z,799.49
2018-05-24T00:44:46.232Z,799.5
2018-05-24T00:44:50.453Z,799.49
2018-05-24T00:44:54.658Z,799.46
2018-05-24T00:44:58.654Z,799.45
2018-05-24T00:45:02.435Z,799.48
2018-05-24T00:45:06.535Z,799.39
2018-05-24T00:45:10.750Z,799.46
2018-05-24T00:45:14.963Z,799.47
2018-05-24T00:45:19.062Z,799.47
2018-05-24T00:45:23.269Z,799.47
2018-05-24T00:45:27.365Z,799.49
2018-05-24T00:45:31.568Z,799.48
2018-05-24T00:45:35.883Z,799.46
2018-05-24T00:45:40.091Z,799.48
2018-05-24T00:45:44.209Z,799.44
2018-05-24T00:45:48.321Z,799.48
2018-05-24T00:45:52.319Z,799.45
2018-05-24T00:45:56.641Z,799.51
2018-05-24T00:46:00.743Z,799.48
2018-05-24T00:46:04.746Z,799.49
2018-05-24T00:46:08.847Z,799.48
2018-05-24T00:46:13.166Z,799.5
2018-05-24T00:46:17.484Z,799.44
2018-05-24T00:46:21.697Z,799.49
2018-05-24T00:46:25.899Z,799.43
2018-05-24T00:46:30.233Z,799.44
2018-05-24T00:46:34.445Z,799.45
2018-05-24T00:46:38.439Z,799.48
2018-05-24T00:46:42.766Z,799.46
2018-05-24T00:46:47.079Z,799.46
2018-05-24T00:46:51.286Z,799.48
2018-05-24T00:46:55.500Z,799.47
2018-05-24T00:46:59.603Z,799.46
2018-05-24T00:47:03.272Z,799.48
2018-05-24T00:47:07.375Z,799.47
2018-05-24T00:47:11.489Z,799.43
2018-05-24T00:47:15.811Z,799.48
2018-05-24T00:47:19.930Z,799.5
2018-05-24T00:47:24.028Z,799.52
2018-05-24T00:47:28.244Z,799.49
2018-05-24T00:47:32.447Z,799.51
2018-05-24T00:47:36.226Z,799.51
2018-05-24T00:47:40.541Z,799.49
2018-05-24T00:47:44.750Z,799.49
2018-05-24T00:47:49.069Z,799.52
2018-05-24T00:47:53.281Z,799.48
2018-05-24T00:47:57.486Z,799.51
2018-05-24T00:48:01.697Z,799.46
2018-05-24T00:48:05.801Z,799.52
2018-05-24T00:48:10.020Z,799.54
2018-05-24T00:48:14.230Z,799.51
2018-05-24T00:48:18.219Z,799.52
2018-05-24T00:48:22.430Z,799.53
2018-05-24T00:48:26.748Z,799.53
2018-05-24T00:48:31.060Z,799.55
2018-05-24T00:48:35.269Z,799.54
2018-05-24T00:48:39.262Z,799.54
2018-05-24T00:48:43.656Z,799.53
2018-05-24T00:48:47.968Z,799.55
2018-05-24T00:48:52.184Z,799.54
2018-05-24T00:48:56.399Z,799.54
2018-05-24T00:49:00.512Z,799.57
2018-05-24T00:49:04.891Z,799.52
2018-05-24T00:49:08.997Z,799.5
2018-05-24T00:49:13.311Z,799.52
2018-05-24T00:49:17.410Z,799.55
2018-05-24T00:49:21.622Z,799.54
2018-05-24T00:49:25.728Z,799.54
2018-05-24T00:49:29.833Z,799.55
2018-05-24T00:49:34.044Z,799.54
2018-05-24T00:49:38.362Z,799.56
2018-05-24T00:49:42.354Z,799.54
2018-05-24T00:49:46.560Z,799.56
2018-05-24T00:49:50.769Z,799.55
2018-05-24T00:49:54.873Z,799.61
2018-05-24T00:49:59.089Z,799.55
2018-05-24T00:50:02.973Z,799.56
2018-05-24T00:50:07.181Z,799.57
2018-05-24T00:50:11.390Z,799.58
2018-05-24T00:50:15.753Z,799.59
2018-05-24T00:50:19.968Z,799.61
2018-05-24T00:50:24.185Z,799.63
2018-05-24T00:50:28.511Z,799.61
2018-05-24T00:50:32.717Z,799.62
2018-05-24T00:50:36.900Z,799.57
2018-05-24T00:50:41.333Z,799.59
2018-05-24T00:50:45.863Z,799.62
2018-05-24T00:50:50.201Z,799.63
2018-05-24T00:50:54.308Z,799.62
2018-05-24T00:50:58.513Z,799.63
2018-05-24T00:51:02.706Z,799.63
2018-05-24T00:51:06.802Z,799.64
2018-05-24T00:51:10.904Z,799.63
2018-05-24T00:51:15.223Z,799.65
2018-05-24T00:51:19.429Z,799.66
2018-05-24T00:51:23.753Z,799.67
2018-05-24T00:51:27.965Z,799.64
2018-05-24T00:51:32.201Z,799.67
2018-05-24T00:51:36.412Z,799.68
2018-05-24T00:51:40.693Z,799.67
2018-05-24T00:51:44.904Z,799.67
2018-05-24T00:51:49.007Z,799.66
2018-05-24T00:51:53.331Z,799.65
2018-05-24T00:51:57.543Z,799.67
2018-05-24T00:52:01.646Z,799.65
2018-05-24T00:52:05.647Z,799.71
2018-05-24T00:52:09.868Z,799.68
2018-05-24T00:52:14.082Z,799.68
2018-05-24T00:52:18.302Z,799.67
2018-05-24T00:52:22.630Z,799.68
2018-05-24T00:52:26.839Z,799.64
2018-05-24T00:52:30.941Z,799.63
2018-05-24T00:52:35.355Z,799.66
2018-05-24T00:52:39.562Z,799.69
2018-05-24T00:52:43.665Z,799.69
2018-05-24T00:52:47.988Z,799.7
2018-05-24T00:52:52.088Z,799.67
2018-05-24T00:52:56.296Z,799.72
2018-05-24T00:53:00.400Z,799.72